Time;durP1;ratioP1;P1;durP2;ratioP2;P2;SDS_P1;SDS_P2;PMS_P1;PMS_P2;Temp;Humidity;BMP_temperature;BMP_pressure;BME280_temperature;BME280_humidity;BME280_pressure;Samples;Min_cycle;Max_cycle;Signal;HPM_P1;HPM_P2
2022/04/21 00:00:16;;;;;;;8.77;5.07;;;8.70;99.90;;;;;;5103346;28;20062;-70
2022/04/21 00:02:43;;;;;;;8.70;5.53;;;8.60;99.90;;;;;;5106179;28;20036;-70
2022/04/21 00:05:10;;;;;;;8.40;5.03;;;;;;;;;;5104095;28;20032;-71
2022/04/21 00:07:36;;;;;;;8.93;5.38;;;;;;;;;;5104628;28;20042;-72
2022/04/21 00:10:04;;;;;;;7.78;5.32;;;8.30;99.90;;;;;;5104859;28;20036;-70
2022/04/21 00:12:30;;;;;;;7.53;5.22;;;8.40;99.90;;;;;;5090729;28;20028;-70
2022/04/21 00:14:56;;;;;;;6.15;5.05;;;;;;;;;;5074292;28;20047;-71
2022/04/21 00:17:22;;;;;;;9.45;5.50;;;8.50;99.90;;;;;;5090872;28;20513;-71
2022/04/21 00:19:48;;;;;;;11.20;6.18;;;8.20;99.90;;;;;;5091256;28;20041;-71
2022/04/21 00:24:58;;;;;;;8.18;5.57;;;8.40;99.90;;;;;;5091545;28;20040;-71
2022/04/21 00:27:24;;;;;;;11.18;6.40;;;;;;;;;;5091220;28;20127;-70
2022/04/21 00:29:50;;;;;;;11.77;7.00;;;;;;;;;;5073265;28;20047;-71
2022/04/21 00:32:16;;;;;;;9.60;5.97;;;;;;;;;;5089664;28;20036;-70
2022/04/21 00:34:42;;;;;;;9.90;5.93;;;;;;;;;;5092502;28;20051;-73
2022/04/21 00:37:08;;;;;;;9.05;6.22;;;8.20;99.90;;;;;;5091225;28;20147;-70
2022/04/21 00:39:34;;;;;;;9.60;6.68;;;;;;;;;;5073606;28;20196;-71
2022/04/21 00:42:02;;;;;;;10.25;6.35;;;8.20;99.90;;;;;;5090803;28;20397;-71
2022/04/21 00:44:29;;;;;;;10.02;6.82;;;8.30;99.90;;;;;;5087241;28;20476;-71
2022/04/21 00:46:56;;;;;;;10.25;7.00;;;;;;;;;;5090800;28;20119;-72
2022/04/21 00:49:22;;;;;;;13.38;7.38;;;8.10;99.90;;;;;;5068095;28;20040;-70
2022/04/21 00:51:52;;;;;;;11.00;7.10;;;8.00;99.90;;;;;;5091897;28;20047;-70
2022/04/21 00:54:18;;;;;;;9.35;6.80;;;;;;;;;;5091678;28;20036;-70
2022/04/21 00:56:45;;;;;;;7.90;6.50;;;8.00;99.90;;;;;;5091459;28;20079;-70
2022/04/21 00:59:11;;;;;;;9.43;6.20;;;8.00;99.90;;;;;;5091036;28;20044;-70
2022/04/21 01:04:26;;;;;;;11.45;7.13;;;;;;;;;;5083122;28;20425;-70
2022/04/21 01:06:52;;;;;;;16.95;8.05;;;7.90;99.90;;;;;;5089398;28;20606;-71
2022/04/21 01:09:18;;;;;;;12.05;8.18;;;8.00;99.90;;;;;;5091312;28;20052;-70
2022/04/21 01:11:49;;;;;;;11.40;7.47;;;8.10;99.90;;;;;;5089680;28;20055;-70
2022/04/21 01:14:15;;;;;;;12.15;7.43;;;8.10;99.90;;;;;;5091001;28;20595;-69
2022/04/21 01:16:41;;;;;;;21.33;9.40;;;;;;;;;;5091525;28;20040;-70
2022/04/21 01:19:07;;;;;;;13.77;8.27;;;8.10;99.90;;;;;;5071981;28;20417;-68
2022/04/21 01:21:33;;;;;;;14.50;7.82;;;;;;;;;;5092141;28;20036;-71
2022/04/21 01:23:59;;;;;;;10.43;7.72;;;;;;;;;;5071471;28;20081;-70
2022/04/21 01:26:34;;;;;;;13.68;8.02;;;7.90;99.90;;;;;;5073372;28;20311;-69
2022/04/21 01:29:01;;;;;;;10.95;8.13;;;;;;;;;;5090731;28;20043;-70
2022/04/21 01:31:27;;;;;;;11.27;8.20;;;;;;;;;;5072625;28;20036;-70
2022/04/21 01:33:53;;;;;;;10.85;7.47;;;;;;;;;;5090128;28;20047;-70
2022/04/21 01:36:19;;;;;;;12.05;7.93;;;;;;;;;;5088941;28;20032;-70
2022/04/21 01:41:29;;;;;;;14.25;8.38;;;;;;;;;;5086337;28;20638;-69
2022/04/21 01:43:55;;;;;;;13.00;8.18;;;7.50;99.90;;;;;;5068877;28;20040;-70
2022/04/21 01:46:20;;;;;;;15.60;9.02;;;7.50;99.90;;;;;;5090038;28;20565;-70
2022/04/21 01:48:46;;;;;;;14.63;9.07;;;;;;;;;;5089260;28;20489;-73
2022/04/21 01:51:12;;;;;;;16.42;9.57;;;;;;;;;;5089709;28;20378;-70
2022/04/21 01:53:38;;;;;;;15.73;9.98;;;7.60;99.90;;;;;;5089368;28;20040;-70
2022/04/21 01:56:04;;;;;;;15.95;8.85;;;;;;;;;;5088143;28;20047;-71
2022/04/21 01:58:29;;;;;;;15.27;9.52;;;7.40;99.90;;;;;;5090362;28;20115;-70
2022/04/21 02:00:56;;;;;;;14.73;9.38;;;;;;;;;;5087510;28;20123;-70
2022/04/21 02:03:21;;;;;;;14.68;9.40;;;7.40;99.90;;;;;;5089019;28;20499;-70
2022/04/21 02:05:47;;;;;;;12.05;9.00;;;;;;;;;;5072502;28;20044;-70
2022/04/21 02:08:13;;;;;;;16.05;9.55;;;;;;;;;;5089452;28;20039;-71
2022/04/21 02:10:39;;;;;;;19.38;9.30;;;7.40;99.90;;;;;;5090475;28;20024;-71
2022/04/21 02:13:05;;;;;;;14.75;9.93;;;;;;;;;;5091758;28;20040;-70
2022/04/21 02:15:31;;;;;;;13.57;9.27;;;;;;;;;;5092514;28;20044;-71
2022/04/21 02:17:57;;;;;;;17.13;10.20;;;;;;;;;;5073641;28;20044;-70
2022/04/21 02:20:23;;;;;;;14.20;9.43;;;7.40;99.90;;;;;;5086904;28;20047;-70
2022/04/21 02:22:48;;;;;;;15.18;10.25;;;7.30;99.90;;;;;;5091373;28;20474;-70
2022/04/21 02:25:16;;;;;;;17.27;11.13;;;7.40;99.90;;;;;;5093541;28;20036;-70
2022/04/21 02:27:44;;;;;;;28.15;14.02;;;7.40;99.90;;;;;;5092490;28;20424;-70
2022/04/21 02:30:10;;;;;;;18.23;10.32;;;7.40;99.90;;;;;;5055175;28;20035;-70
2022/04/21 02:32:37;;;;;;;18.60;11.38;;;;;;;;;;5088473;28;20039;-71
2022/04/21 02:35:04;;;;;;;18.73;12.55;;;7.40;99.90;;;;;;5090313;28;20043;-70
2022/04/21 02:37:38;;;;;;;18.02;11.18;;;7.40;99.90;;;;;;5089313;28;20043;-69
2022/04/21 02:40:06;;;;;;;23.02;12.38;;;7.50;99.90;;;;;;5087459;28;20039;-70
2022/04/21 02:42:32;;;;;;;17.23;11.18;;;;;;;;;;5088617;28;20570;-70
2022/04/21 02:44:58;;;;;;;23.98;13.77;;;7.50;99.90;;;;;;5088575;28;20111;-70
2022/04/21 02:47:24;;;;;;;19.83;13.38;;;7.50;99.90;;;;;;5090426;28;20401;-69
2022/04/21 02:49:50;;;;;;;19.73;12.63;;;;;;;;;;5086507;28;20047;-70
2022/04/21 02:52:17;;;;;;;17.80;12.07;;;7.60;99.90;;;;;;5072172;28;20044;-70
2022/04/21 02:57:30;;;;;;;19.73;12.23;;;;;;;;;;5088485;28;20405;-72
2022/04/21 02:59:57;;;;;;;20.98;12.93;;;7.60;99.90;;;;;;5088955;28;20426;-70
2022/04/21 03:02:24;;;;;;;21.45;14.20;;;;;;;;;;5087946;28;20040;-70
2022/04/21 03:04:51;;;;;;;22.58;12.32;;;;;;;;;;5088865;28;20036;-70
2022/04/21 03:07:22;;;;;;;17.95;12.73;;;7.60;99.90;;;;;;5086866;28;20085;-70
2022/04/21 03:09:55;;;;;;;18.85;12.90;;;;;;;;;;5071304;28;20032;-70
2022/04/21 03:12:26;;;;;;;22.05;12.48;;;7.50;99.90;;;;;;5071751;28;20447;-70
2022/04/21 03:14:53;;;;;;;20.13;13.40;;;7.60;99.90;;;;;;5067790;28;20493;-70
2022/04/21 03:17:19;;;;;;;19.83;12.77;;;;;;;;;;5089964;28;20516;-72
2022/04/21 03:19:45;;;;;;;17.05;11.20;;;;;;;;;;5086146;28;20043;-72
2022/04/21 03:24:59;;;;;;;21.45;12.55;;;7.60;99.90;;;;;;5086209;28;20074;-70
2022/04/21 03:27:29;;;;;;;22.92;12.00;;;;;;;;;;5071136;28;20036;-71
2022/04/21 03:29:55;;;;;;;19.33;12.68;;;7.70;99.90;;;;;;5088684;28;20047;-70
2022/04/21 03:32:21;;;;;;;19.33;12.63;;;;;;;;;;5083388;28;20050;-70
2022/04/21 03:34:47;;;;;;;17.85;11.82;;;7.60;99.90;;;;;;5088695;28;20123;-70
2022/04/21 03:37:14;;;;;;;19.15;11.85;;;7.80;99.90;;;;;;5087581;28;20108;-70
2022/04/21 03:39:41;;;;;;;20.40;11.95;;;7.70;99.90;;;;;;5087949;28;20032;-70
2022/04/21 03:42:16;;;;;;;20.92;13.02;;;7.70;99.90;;;;;;5087610;28;20063;-70
2022/04/21 03:44:42;;;;;;;19.23;12.18;;;7.70;99.90;;;;;;5086947;28;20040;-70
2022/04/21 03:47:08;;;;;;;20.27;11.65;;;;;;;;;;5091601;28;20047;-70
2022/04/21 03:49:34;;;;;;;22.67;13.15;;;;;;;;;;5072523;28;20253;-70
2022/04/21 03:52:00;;;;;;;18.05;11.45;;;;;;;;;;5092426;28;20115;-70
2022/04/21 03:54:26;;;;;;;19.70;11.93;;;;;;;;;;5092268;28;20051;-70
2022/04/21 03:56:53;;;;;;;20.85;11.75;;;7.70;99.90;;;;;;5074537;28;20115;-72
2022/04/21 03:59:20;;;;;;;22.35;12.23;;;7.60;99.90;;;;;;5090970;28;20039;-70
2022/04/21 04:01:45;;;;;;;19.48;12.13;;;7.60;99.90;;;;;;5091217;28;20067;-70
2022/04/21 04:04:12;;;;;;;20.92;12.43;;;7.50;99.90;;;;;;5092194;28;20121;-70
2022/04/21 04:12:08;;;;;;;19.77;12.35;;;7.60;99.90;;;;;;5083367;28;20047;-70
2022/04/21 04:14:34;;;;;;;19.92;12.85;;;7.60;99.90;;;;;;5092902;28;20047;-70
2022/04/21 04:17:00;;;;;;;17.67;11.88;;;;;;;;;;5091549;28;20417;-71
2022/04/21 04:19:25;;;;;;;20.52;13.43;;;7.40;99.90;;;;;;5090784;28;20047;-70
2022/04/21 04:21:51;;;;;;;18.30;11.75;;;7.50;99.90;;;;;;5091529;28;20185;-70
2022/04/21 04:24:17;;;;;;;21.48;11.80;;;7.50;99.90;;;;;;5092146;28;20040;-70
2022/04/21 04:26:42;;;;;;;21.38;12.40;;;7.60;99.90;;;;;;5091477;28;20028;-70
2022/04/21 04:29:09;;;;;;;16.35;11.43;;;;;;;;;;5089589;28;20169;-68
2022/04/21 04:31:36;;;;;;;19.25;11.88;;;;;;;;;;5092791;28;20501;-71
2022/04/21 04:34:02;;;;;;;20.90;11.18;;;7.50;99.90;;;;;;5091078;28;20032;-70
2022/04/21 04:36:28;;;;;;;20.77;11.98;;;;;;;;;;5074113;28;20036;-71
2022/04/21 04:38:54;;;;;;;16.42;10.43;;;7.60;99.90;;;;;;5091043;28;20032;-70
2022/04/21 04:44:05;;;;;;;16.08;9.07;;;7.60;99.90;;;;;;5089774;28;20083;-70
2022/04/21 04:46:37;;;;;;;15.43;10.20;;;7.60;99.90;;;;;;5090574;28;20063;-70
2022/04/21 04:49:05;;;;;;;14.87;9.53;;;7.70;99.90;;;;;;5086015;28;20036;-70
2022/04/21 04:51:31;;;;;;;18.10;9.60;;;;;;;;;;5090618;28;20036;-70
2022/04/21 04:53:57;;;;;;;16.90;9.88;;;7.80;99.90;;;;;;5089960;28;20096;-70
2022/04/21 04:56:23;;;;;;;15.23;9.85;;;7.70;99.90;;;;;;5091211;28;20032;-69
2022/04/21 04:58:49;;;;;;;17.90;10.77;;;7.90;99.90;;;;;;5091158;28;20443;-70
2022/04/21 05:01:26;;;;;;;15.05;9.48;;;7.80;99.90;;;;;;5089949;28;20119;-70
2022/04/21 05:03:53;;;;;;;16.25;9.00;;;7.90;99.90;;;;;;5074289;28;20555;-70
2022/04/21 05:06:18;;;;;;;14.85;9.52;;;7.90;99.90;;;;;;5088860;28;20047;-70
2022/04/21 05:08:44;;;;;;;15.07;10.15;;;8.00;99.90;;;;;;5090172;28;20036;-71
2022/04/21 05:11:11;;;;;;;15.35;9.63;;;7.70;99.90;;;;;;5089126;28;20048;-70
2022/04/21 05:13:37;;;;;;;17.10;9.60;;;7.80;99.90;;;;;;5073435;28;20035;-70
2022/04/21 05:16:03;;;;;;;16.48;9.77;;;;;;;;;;5090635;28;20413;-70
2022/04/21 05:18:29;;;;;;;15.80;10.85;;;;;;;;;;5090683;28;20040;-72
2022/04/21 05:20:55;;;;;;;16.45;10.63;;;;;;;;;;5090789;28;20040;-71
2022/04/21 05:23:21;;;;;;;16.00;10.02;;;;;;;;;;5090548;28;20040;-72
2022/04/21 05:25:48;;;;;;;15.98;9.95;;;;;;;;;;5091542;28;20028;-71
2022/04/21 05:28:14;;;;;;;16.27;10.48;;;;;;;;;;5089921;28;20039;-71
2022/04/21 05:30:55;;;;;;;14.88;9.27;;;;;;;;;;5087747;28;20047;-72
2022/04/21 05:33:24;;;;;;;13.77;9.93;;;8.10;99.90;;;;;;5083468;28;20050;-70
2022/04/21 05:35:50;;;;;;;14.52;9.30;;;;;;;;;;5090027;28;20464;-70
2022/04/21 05:38:16;;;;;;;12.70;8.45;;;;;;;;;;5091186;28;20040;-70
2022/04/21 05:40:43;;;;;;;12.02;8.20;;;8.30;99.90;;;;;;5071792;28;20044;-70
2022/04/21 05:43:12;;;;;;;14.52;9.10;;;8.30;99.90;;;;;;5086207;28;20035;-70
2022/04/21 05:45:38;;;;;;;13.65;8.45;;;8.40;99.90;;;;;;5090605;28;20032;-70
2022/04/21 05:48:05;;;;;;;12.43;8.05;;;8.20;99.90;;;;;;5088346;28;20034;-71
2022/04/21 05:50:31;;;;;;;15.25;9.30;;;;;;;;;;5072335;28;20434;-71
2022/04/21 05:53:01;;;;;;;12.63;9.20;;;8.50;99.90;;;;;;5088943;28;21483;-70
2022/04/21 05:55:27;;;;;;;13.02;9.20;;;8.50;99.90;;;;;;5088283;28;20036;-70
2022/04/21 05:57:53;;;;;;;14.27;9.00;;;;;;;;;;5072623;28;20058;-70
2022/04/21 06:00:19;;;;;;;15.30;8.48;;;8.60;99.90;;;;;;5087937;28;20040;-70
2022/04/21 06:02:44;;;;;;;11.73;7.88;;;8.70;99.90;;;;;;5090367;28;20032;-68
2022/04/21 06:05:10;;;;;;;11.85;8.02;;;;;;;;;;5090165;28;20149;-71
2022/04/21 06:07:36;;;;;;;14.23;7.68;;;;;;;;;;5088567;28;20113;-71
2022/04/21 06:10:02;;;;;;;10.57;7.40;;;;;;;;;;5079651;28;20602;-71
2022/04/21 06:12:28;;;;;;;12.20;7.65;;;9.00;99.90;;;;;;5094601;28;20489;-70
2022/04/21 06:14:54;;;;;;;11.02;7.70;;;;;;;;;;5088061;28;20044;-72
2022/04/21 06:17:20;;;;;;;15.40;8.65;;;;;;;;;;5088421;28;20091;-70
2022/04/21 06:19:46;;;;;;;16.95;9.20;;;9.10;99.90;;;;;;5070378;28;20592;-70
2022/04/21 06:22:12;;;;;;;11.60;8.05;;;;;;;;;;5100909;28;20067;-70
2022/04/21 06:24:38;;;;;;;17.13;8.63;;;;;;;;;;5093304;28;20093;-70
2022/04/21 06:27:04;;;;;;;12.15;7.95;;;9.30;99.90;;;;;;5088464;28;20044;-70
2022/04/21 06:29:30;;;;;;;14.90;8.38;;;9.50;99.90;;;;;;5081885;28;20044;-71
2022/04/21 06:31:56;;;;;;;16.85;8.50;;;;;;;;;;5084051;28;20036;-70
2022/04/21 06:34:22;;;;;;;14.50;8.07;;;;;;;;;;5063101;28;20050;-72
2022/04/21 06:36:48;;;;;;;10.52;7.13;;;;;;;;;;5068336;28;20152;-69
2022/04/21 06:39:14;;;;;;;12.75;8.43;;;9.80;99.90;;;;;;5064609;28;20598;-69
2022/04/21 06:41:40;;;;;;;14.88;7.47;;;;;;;;;;5084345;28;20036;-70
2022/04/21 06:49:35;;;;;;;9.57;6.57;;;;;;;;;;5083346;28;20055;-69
2022/04/21 06:52:01;;;;;;;10.38;7.30;;;;;;;;;;5084006;28;20048;-69
2022/04/21 06:54:27;;;;;;;10.07;6.32;;;;;;;;;;5082978;28;20044;-70
2022/04/21 06:56:53;;;;;;;9.00;6.78;;;;;;;;;;5088872;28;20517;-69
2022/04/21 06:59:19;;;;;;;13.40;8.15;;;10.30;99.90;;;;;;5102819;28;20051;-69
2022/04/21 07:01:48;;;;;;;12.80;6.72;;;;;;;;;;5092001;28;20036;-70
2022/04/21 07:04:14;;;;;;;15.45;6.28;;;10.60;99.90;;;;;;5072898;28;20383;-70
2022/04/21 07:06:40;;;;;;;9.75;6.38;;;10.70;99.90;;;;;;5091841;28;20444;-70
2022/04/21 07:09:05;;;;;;;7.70;5.78;;;10.60;99.90;;;;;;5090067;28;20036;-70
2022/04/21 07:11:31;;;;;;;8.88;6.00;;;;;;;;;;5090283;28;20032;-71
2022/04/21 07:13:57;;;;;;;9.70;5.38;;;;;;;;;;5089405;28;20128;-71
2022/04/21 07:16:23;;;;;;;8.80;5.10;;;;;;;;;;5092025;28;20070;-71
2022/04/21 07:18:50;;;;;;;5.03;4.35;;;;;;;;;;5073674;28;20032;-70
2022/04/21 07:21:16;;;;;;;9.35;4.93;;;;;;;;;;5092321;28;20058;-71
2022/04/21 07:23:44;;;;;;;7.25;5.18;;;10.50;99.90;;;;;;5077858;28;20043;-72
2022/04/21 07:26:10;;;;;;;8.35;4.97;;;;;;;;;;5094330;28;20036;-73
2022/04/21 07:28:36;;;;;;;7.22;5.32;;;;;;;;;;5094232;28;20128;-72
2022/04/21 07:31:02;;;;;;;9.35;4.75;;;;;;;;;;5076528;28;20046;-73
2022/04/21 07:33:28;;;;;;;7.15;4.90;;;;;;;;;;5094389;28;20071;-71
2022/04/21 07:35:54;;;;;;;8.25;4.60;;;11.50;99.90;;;;;;5089475;28;20036;-70
2022/04/21 07:38:21;;;;;;;7.45;4.70;;;11.60;99.90;;;;;;5098728;28;20090;-72
2022/04/21 07:40:50;;;;;;;8.43;4.10;;;;;;;;;;5094472;28;20048;-72
2022/04/21 07:43:16;;;;;;;5.22;3.47;;;11.80;99.90;;;;;;5094912;28;20536;-71
2022/04/21 07:45:43;;;;;;;5.63;3.97;;;11.90;99.90;;;;;;5077094;28;20505;-72
2022/04/21 07:48:10;;;;;;;8.75;4.07;;;;;;;;;;5092876;28;20076;-70
2022/04/21 07:50:36;;;;;;;4.55;3.90;;;;;;;;;;5095665;28;20072;-70
2022/04/21 07:53:14;;;;;;;6.18;4.28;;;;;;;;;;5079482;28;20040;-71
2022/04/21 07:55:42;;;;;;;7.53;4.45;;;12.40;99.90;;;;;;5093922;28;20047;-71
2022/04/21 07:58:08;;;;;;;5.65;3.78;;;12.20;99.90;;;;;;5094015;28;20040;-71
2022/04/21 08:00:36;;;;;;;5.85;3.42;;;12.50;99.90;;;;;;5093338;28;20248;-71
2022/04/21 08:03:03;;;;;;;9.15;3.95;;;12.40;99.90;;;;;;5093469;28;20115;-72
2022/04/21 08:05:29;;;;;;;4.28;3.38;;;12.70;99.90;;;;;;5093938;28;20040;-71
2022/04/21 08:07:54;;;;;;;5.30;3.33;;;12.70;99.90;;;;;;5093367;28;20119;-71
2022/04/21 08:10:20;;;;;;;6.03;3.25;;;12.80;99.90;;;;;;5092516;28;20166;-70
2022/04/21 08:12:52;;;;;;;5.75;3.45;;;12.80;99.90;;;;;;5094357;28;20039;-71
2022/04/21 08:15:31;;;;;;;3.65;2.60;;;;;;;;;;5092800;28;20050;-71
2022/04/21 08:18:05;;;;;;;6.38;2.75;;;12.90;99.90;;;;;;5093292;28;20563;-71
2022/04/21 08:20:39;;;;;;;4.30;2.65;;;;;;;;;;5093057;28;20481;-71
2022/04/21 08:23:05;;;;;;;12.02;3.05;;;13.10;99.90;;;;;;5114043;28;20059;-72
2022/04/21 08:33:44;;;;;;;7.30;2.78;;;13.30;97.80;;;;;;5093864;28;20047;-71
2022/04/21 08:36:10;;;;;;;4.22;2.30;;;;;;;;;;5092922;28;20040;-71
2022/04/21 08:38:36;;;;;;;5.30;2.63;;;13.60;98.60;;;;;;5075753;28;20553;-71
2022/04/21 08:41:07;;;;;;;5.47;2.53;;;13.70;98.50;;;;;;5092215;28;20123;-71
2022/04/21 08:43:36;;;;;;;4.82;2.40;;;;;;;;;;5092997;28;20063;-71
2022/04/21 08:46:04;;;;;;;4.75;2.17;;;13.90;98.20;;;;;;5093812;28;20036;-71
2022/04/21 08:48:31;;;;;;;5.28;3.17;;;14.00;98.10;;;;;;5093868;28;20032;-71
2022/04/21 08:50:57;;;;;;;7.18;2.20;;;13.90;98.00;;;;;;5091523;28;20207;-71
2022/04/21 08:53:24;;;;;;;4.80;2.65;;;14.10;97.10;;;;;;5092335;28;20171;-72
2022/04/21 08:55:50;;;;;;;7.13;2.67;;;14.10;98.00;;;;;;5092358;28;20071;-71
2022/04/21 08:58:17;;;;;;;4.53;2.47;;;14.20;97.90;;;;;;5075705;28;20044;-71
2022/04/21 09:00:43;;;;;;;3.92;2.22;;;14.20;97.90;;;;;;5092753;28;20055;-71
2022/04/21 09:03:11;;;;;;;4.72;2.90;;;14.30;97.50;;;;;;5093534;28;20421;-71
2022/04/21 09:05:37;;;;;;;4.68;2.88;;;14.30;97.50;;;;;;5092269;28;20488;-69
2022/04/21 09:08:03;;;;;;;5.35;3.03;;;14.20;97.40;;;;;;5101946;28;20375;-71
2022/04/21 09:10:34;;;;;;;4.28;2.95;;;14.30;97.70;;;;;;5102976;28;20038;-71
2022/04/21 09:13:02;;;;;;;2.75;2.45;;;14.50;97.70;;;;;;5112432;28;20075;-71
2022/04/21 09:15:30;;;;;;;4.18;2.38;;;14.50;97.70;;;;;;5112268;28;20085;-71
2022/04/21 09:18:01;;;;;;;3.30;2.38;;;14.70;97.90;;;;;;5095317;28;20048;-71
2022/04/21 09:20:35;;;;;;;3.65;2.28;;;14.70;97.70;;;;;;5111506;28;20047;-71
2022/04/21 09:23:05;;;;;;;5.00;2.30;;;14.80;97.50;;;;;;5113019;28;20062;-70
2022/04/21 09:25:50;;;;;;;3.28;2.20;;;15.10;97.30;;;;;;5096110;28;20039;-70
2022/04/21 09:28:32;;;;;;;3.30;2.15;;;15.20;97.30;;;;;;5112206;28;20086;-70
2022/04/21 09:31:00;;;;;;;4.03;2.75;;;15.20;96.20;;;;;;5097469;28;20502;-70
2022/04/21 09:33:30;;;;;;;6.15;2.90;;;15.30;97.50;;;;;;5093090;28;20048;-72
2022/04/21 09:35:57;;;;;;;5.22;2.70;;;15.00;97.00;;;;;;5091816;28;20594;-71
2022/04/21 09:38:23;;;;;;;3.88;2.45;;;15.10;97.50;;;;;;5091770;28;20085;-72
2022/04/21 09:40:49;;;;;;;6.03;3.42;;;15.20;97.10;;;;;;5093457;28;20040;-72
2022/04/21 09:43:32;;;;;;;4.70;2.85;;;15.30;97.60;;;;;;5091133;28;20490;-72
2022/04/21 09:46:21;;;;;;;5.07;3.10;;;15.30;97.50;;;;;;5080032;28;20036;-70
2022/04/21 09:48:52;;;;;;;6.13;3.20;;;15.40;97.70;;;;;;5091476;28;20051;-71
2022/04/21 09:51:29;;;;;;;3.38;2.47;;;15.60;97.60;;;;;;5092288;28;20072;-71
2022/04/21 09:54:01;;;;;;;3.92;2.60;;;15.70;97.20;;;;;;5091446;28;20386;-69
2022/04/21 09:56:32;;;;;;;5.00;2.78;;;15.80;97.10;;;;;;5091712;28;20093;-70
2022/04/21 09:58:59;;;;;;;4.45;2.90;;;15.80;97.00;;;;;;5090999;28;20047;-69
2022/04/21 10:01:25;;;;;;;3.55;2.40;;;16.30;96.50;;;;;;5091212;28;20040;-71
2022/04/21 10:03:52;;;;;;;4.78;3.13;;;15.70;96.20;;;;;;5092930;28;20160;-70
2022/04/21 10:06:18;;;;;;;6.95;3.22;;;15.80;96.10;;;;;;5074581;28;20490;-70
2022/04/21 10:08:44;;;;;;;5.93;3.22;;;15.70;97.10;;;;;;5091121;28;20548;-71
2022/04/21 10:11:11;;;;;;;4.03;3.03;;;15.80;96.20;;;;;;5100171;28;20070;-70
2022/04/21 10:13:40;;;;;;;4.85;2.92;;;16.10;97.20;;;;;;5090949;28;20072;-71
2022/04/21 10:16:07;;;;;;;4.03;2.70;;;16.10;96.70;;;;;;5097656;28;20078;-71
2022/04/21 10:18:34;;;;;;;5.97;2.60;;;16.10;95.70;;;;;;5091089;28;20058;-71
2022/04/21 10:21:00;;;;;;;3.70;2.58;;;16.30;96.60;;;;;;5090171;28;20413;-71
2022/04/21 10:23:28;;;;;;;4.05;3.55;;;16.40;95.80;;;;;;5092099;28;20502;-70
2022/04/21 10:26:02;;;;;;;5.63;3.22;;;16.20;95.40;;;;;;5090810;28;20071;-71
2022/04/21 10:28:40;;;;;;;6.65;3.53;;;16.50;95.70;;;;;;5074080;28;20047;-71
2022/04/21 10:31:25;;;;;;;9.25;3.90;;;16.20;95.60;;;;;;5091431;28;20048;-70
2022/04/21 10:33:55;;;;;;;7.38;3.47;;;16.10;95.70;;;;;;5092117;28;20119;-71
2022/04/21 10:36:41;;;;;;;8.73;3.95;;;16.20;96.10;;;;;;5091404;28;20031;-71
2022/04/21 10:39:11;;;;;;;5.35;3.83;;;16.40;96.00;;;;;;5085762;28;20058;-68
2022/04/21 10:41:38;;;;;;;5.65;2.75;;;16.40;95.90;;;;;;5084570;28;20047;-71
2022/04/21 10:44:11;;;;;;;5.20;3.47;;;18.10;96.20;;;;;;5068183;28;20056;-72
2022/04/21 10:46:37;;;;;;;;;;;16.50;96.20;;;;;;5050568;28;20117;-70
2022/04/21 10:49:02;;;;;;;4.95;3.33;;;16.20;96.30;;;;;;5066199;28;19920;-71
2022/04/21 10:57:12;;;;;;;4.75;3.30;;;16.30;96.20;;;;;;5066079;28;20409;-71
2022/04/21 10:57:28;;;;;;;3.83;2.80;;;16.00;96.20;;;;;;5084204;28;20044;-70
2022/04/21 11:00:03;;;;;;;7.03;3.15;;;16.40;95.80;;;;;;5077633;28;20833;-71
2022/04/21 11:02:42;;;;;;;4.38;3.53;;;16.60;95.80;;;;;;5081804;28;20044;-72
2022/04/21 11:05:23;;;;;;;7.93;3.40;;;16.30;95.70;;;;;;5073594;28;20074;-72
2022/04/21 11:08:00;;;;;;;4.82;3.20;;;16.40;96.20;;;;;;5085576;28;20118;-70
2022/04/21 11:10:27;;;;;;;6.05;3.33;;;16.10;95.60;;;;;;5086521;28;20071;-72
2022/04/21 11:12:53;;;;;;;5.18;3.33;;;16.30;95.50;;;;;;5101449;28;20516;-72
2022/04/21 11:15:35;;;;;;;5.90;3.38;;;16.50;96.00;;;;;;5114142;22;20048;-71
2022/04/21 11:18:12;;;;;;;4.88;2.95;;;16.40;96.00;;;;;;5099563;28;20036;-71
2022/04/21 11:20:40;;;;;;;6.95;3.47;;;16.50;95.80;;;;;;5072699;28;20505;-71
2022/04/21 11:23:20;;;;;;;3.58;2.85;;;16.50;95.90;;;;;;5111455;28;20054;-71
2022/04/21 11:25:45;;;;;;;3.35;2.97;;;16.80;95.40;;;;;;5093230;28;20493;-71
2022/04/21 11:28:12;;;;;;;4.55;3.30;;;16.80;95.50;;;;;;5111186;28;20081;-71
2022/04/21 11:30:38;;;;;;;6.28;3.28;;;16.90;95.40;;;;;;5104359;28;20076;-71
2022/04/21 11:33:10;;;;;;;6.70;3.33;;;17.20;95.60;;;;;;5093147;28;20039;-71
2022/04/21 11:35:35;;;;;;;5.25;2.72;;;16.80;95.10;;;;;;5093515;28;20127;-71
2022/04/21 11:38:01;;;;;;;4.30;2.65;;;16.80;95.20;;;;;;5091621;28;20090;-71
2022/04/21 11:40:32;;;;;;;4.35;3.03;;;16.90;94.70;;;;;;5092479;28;20425;-71
2022/04/21 11:43:02;;;;;;;7.20;2.88;;;17.10;95.00;;;;;;5111123;28;20035;-71
2022/04/21 11:45:30;;;;;;;5.00;2.90;;;17.30;95.10;;;;;;5111246;28;20050;-71
2022/04/21 11:47:56;;;;;;;4.35;3.08;;;17.50;95.00;;;;;;5110133;28;20045;-71
2022/04/21 11:50:27;;;;;;;4.82;3.00;;;17.10;94.70;;;;;;5075672;28;20374;-71
2022/04/21 11:52:54;;;;;;;4.18;2.92;;;17.30;94.20;;;;;;5092888;28;20441;-72
2022/04/21 11:55:25;;;;;;;4.07;2.70;;;17.40;94.00;;;;;;5110952;28;20365;-71
2022/04/21 11:57:51;;;;;;;6.68;4.00;;;17.30;94.10;;;;;;5111384;28;20104;-71
2022/04/21 12:06:27;;;;;;;5.43;3.45;;;17.50;94.30;;;;;;5071837;28;20032;-70
2022/04/21 12:08:47;;;;;;;4.35;2.53;;;17.30;94.30;;;;;;5089577;28;20524;-70
2022/04/21 12:11:15;;;;;;;5.07;2.88;;;17.60;94.20;;;;;;5093506;28;20040;-70
2022/04/21 12:13:42;;;;;;;4.82;2.92;;;17.50;94.60;;;;;;5076507;28;20071;-70
2022/04/21 12:16:38;;;;;;;8.57;2.75;;;17.60;94.40;;;;;;5077194;28;20549;-70
2022/04/21 12:19:17;;;;;;;3.80;2.83;;;17.40;93.90;;;;;;5077131;28;20055;-70
2022/04/21 12:21:45;;;;;;;6.95;2.90;;;17.30;94.10;;;;;;5076384;28;20521;-70
2022/04/21 12:24:17;;;;;;;6.18;3.35;;;17.30;94.20;;;;;;5075918;28;20494;-70
2022/04/21 12:26:50;;;;;;;4.15;2.75;;;17.70;93.80;;;;;;5093999;28;20512;-70
2022/04/21 12:29:17;;;;;;;3.05;2.60;;;17.20;94.40;;;;;;5075327;28;20036;-70
2022/04/21 12:31:53;;;;;;;3.97;2.90;;;17.50;94.20;;;;;;5094017;28;20036;-70
2022/04/21 12:34:27;;;;;;;4.47;2.70;;;17.40;94.20;;;;;;5075924;28;20063;-71
2022/04/21 12:37:00;;;;;;;6.55;3.08;;;17.50;94.70;;;;;;5093575;28;20040;-70
2022/04/21 12:39:29;;;;;;;2.97;2.70;;;17.80;94.50;;;;;;5077533;28;20608;-70
2022/04/21 12:41:56;;;;;;;4.57;2.78;;;17.40;95.20;;;;;;5075447;28;20040;-71
2022/04/21 12:44:25;;;;;;;5.22;3.00;;;17.50;94.90;;;;;;5058672;28;20489;-71
2022/04/21 12:47:12;;;;;;;6.50;3.50;;;17.40;95.20;;;;;;5066616;28;20032;-71
2022/04/21 12:50:08;;;;;;;4.95;3.63;;;17.40;95.30;;;;;;5113476;28;20035;-71
2022/04/21 12:52:46;;;;;;;7.13;3.97;;;17.50;94.80;;;;;;5095716;28;20032;-71
2022/04/21 12:55:23;;;;;;;5.20;3.80;;;17.10;95.40;;;;;;5113683;28;20084;-71
2022/04/21 12:58:14;;;;;;;3.80;3.45;;;17.30;96.00;;;;;;5095554;28;20044;-71
2022/04/21 13:00:45;;;;;;;6.50;4.57;;;17.50;95.20;;;;;;5113019;28;20040;-71
2022/04/21 13:03:14;;;;;;;6.40;3.75;;;17.40;95.50;;;;;;5095103;28;20516;-70
2022/04/21 13:05:54;;;;;;;6.10;3.53;;;16.90;95.70;;;;;;5095507;28;20080;-71
2022/04/21 13:08:22;;;;;;;4.35;3.63;;;17.40;95.90;;;;;;5095232;28;20521;-71
2022/04/21 13:10:48;;;;;;;7.07;4.97;;;17.80;96.00;;;;;;5094376;28;20126;-72
2022/04/21 13:13:14;;;;;;;5.75;4.13;;;17.60;95.50;;;;;;5113429;28;20083;-71
2022/04/21 13:15:39;;;;;;;7.18;4.72;;;17.80;95.50;;;;;;5076715;28;20039;-72
2022/04/21 13:18:05;;;;;;;6.78;3.70;;;19.50;95.90;;;;;;5067702;28;20036;-71
2022/04/21 13:23:15;;;;;;;8.02;4.45;;;17.80;94.60;;;;;;5106654;28;20036;-72
2022/04/21 13:25:41;;;;;;;6.88;4.97;;;17.80;95.00;;;;;;5094811;28;20035;-71
2022/04/21 13:28:07;;;;;;;6.10;4.05;;;18.00;95.00;;;;;;5078410;28;20031;-71
2022/04/21 13:30:32;;;;;;;4.45;3.72;;;17.90;95.30;;;;;;5083597;28;20042;-71
2022/04/21 13:35:42;;;;;;;7.05;4.35;;;17.50;94.40;;;;;;5092671;28;20050;-71
2022/04/21 13:38:08;;;;;;;6.03;4.55;;;17.60;95.10;;;;;;5074463;28;20118;-72
2022/04/21 13:40:34;;;;;;;6.30;4.10;;;17.10;95.40;;;;;;5073555;28;20036;-71
2022/04/21 13:43:00;;;;;;;11.30;4.63;;;17.00;95.50;;;;;;5074360;28;20040;-71
2022/04/21 13:45:25;;;;;;;9.60;4.95;;;16.50;95.70;;;;;;5057460;28;20075;-71
2022/04/21 13:47:51;;;;;;;6.10;4.25;;;18.10;96.40;;;;;;5092320;28;20413;-71
2022/04/21 13:50:17;;;;;;;8.65;4.38;;;17.30;95.70;;;;;;5091885;28;20040;-70
2022/04/21 13:52:43;;;;;;;5.47;4.63;;;17.40;95.60;;;;;;5076928;28;20101;-70
2022/04/21 13:55:10;;;;;;;5.90;4.18;;;17.30;95.70;;;;;;5073918;28;20044;-71
2022/04/21 13:57:35;;;;;;;6.47;4.43;;;16.90;95.50;;;;;;5074113;28;20040;-71
2022/04/21 14:00:05;;;;;;;6.40;4.57;;;17.00;95.80;;;;;;5073408;28;20105;-69
2022/04/21 14:02:31;;;;;;;7.50;5.05;;;17.20;95.80;;;;;;5092220;28;20036;-69
2022/04/21 14:04:56;;;;;;;6.57;3.90;;;16.60;95.60;;;;;;5073715;28;20109;-69
2022/04/21 14:07:22;;;;;;;6.15;3.95;;;16.50;95.70;;;;;;5057018;28;20123;-70